Time;durP1;ratioP1;P1;durP2;ratioP2;P2;SDS_P1;SDS_P2;PMS_P1;PMS_P2;Temp;Humidity;BMP_temperature;BMP_pressure;BME280_temperature;BME280_humidity;BME280_pressure;Samples;Min_cycle;Max_cycle;Signal;HPM_P1;HPM_P2
2022/10/28 00:00:29;;;;;;;6.38;2.90;;;;;;;14.47;100.00;97337.03;10411465;28;20243;-62
2022/10/28 00:05:33;;;;;;;6.68;3.15;;;;;;;14.33;100.00;97337.72;10411837;28;20184;-59
2022/10/28 00:10:33;;;;;;;5.15;2.80;;;;;;;14.23;100.00;97351.88;10411251;28;20210;-63
2022/10/28 00:15:34;;;;;;;6.35;2.85;;;;;;;13.95;100.00;97354.00;10411285;28;20286;-63
2022/10/28 00:20:34;;;;;;;7.43;3.05;;;;;;;13.73;100.00;97350.13;10411161;28;20279;-63
2022/10/28 00:25:35;;;;;;;6.40;3.50;;;;;;;13.88;100.00;97364.34;10411215;28;20181;-61
2022/10/28 00:30:35;;;;;;;4.57;2.92;;;;;;;14.01;100.00;97358.63;10410921;28;20303;-62
2022/10/28 00:35:35;;;;;;;10.13;2.97;;;;;;;13.90;100.00;97354.47;10410574;28;20228;-63
2022/10/28 00:40:36;;;;;;;6.25;2.70;;;;;;;14.03;100.00;97335.56;10410284;28;20213;-61
2022/10/28 00:45:37;;;;;;;4.07;2.70;;;;;;;14.09;100.00;97339.34;10410350;28;20277;-59
2022/10/28 00:50:42;;;;;;;10.35;2.83;;;;;;;14.21;100.00;97334.56;10410455;28;20240;-62
2022/10/28 00:55:44;;;;;;;7.40;2.92;;;;;;;14.07;100.00;97328.97;10392669;28;20228;-62
2022/10/28 01:00:44;;;;;;;5.07;2.67;;;;;;;14.09;100.00;97321.72;10391684;28;20280;-63
2022/10/28 01:05:46;;;;;;;13.18;2.95;;;;;;;13.87;100.00;97319.72;10410072;28;20185;-60
2022/10/28 01:11:03;;;;;;;8.35;3.22;;;;;;;13.73;100.00;97321.19;10409873;28;20618;-60
2022/10/28 01:16:33;;;;;;;11.23;3.05;;;;;;;13.75;100.00;97319.19;10409919;28;20227;-62
2022/10/28 01:22:05;;;;;;;7.18;2.95;;;;;;;13.78;100.00;97307.53;10401450;28;20221;-60
2022/10/28 01:27:08;;;;;;;6.85;3.25;;;;;;;13.81;100.00;97304.56;10413840;28;20196;-62
2022/10/28 01:32:42;;;;;;;5.85;2.85;;;;;;;13.76;100.00;97299.78;10417187;28;20228;-62
2022/10/28 01:37:52;;;;;;;7.68;3.00;;;;;;;13.80;100.00;97297.63;10416667;28;20595;-56
2022/10/28 01:43:09;;;;;;;7.22;3.03;;;;;;;13.78;100.00;97302.25;10396120;28;20189;-60
2022/10/28 01:48:15;;;;;;;6.72;2.45;;;;;;;13.72;100.00;97295.81;10416398;28;20251;-61
2022/10/28 01:53:20;;;;;;;7.72;2.70;;;;;;;13.65;100.00;97302.75;10399117;28;20219;-57
2022/10/28 01:58:23;;;;;;;6.65;2.95;;;;;;;13.61;100.00;97296.13;10399018;28;20215;-58
2022/10/28 02:03:24;;;;;;;6.20;2.40;;;;;;;13.76;100.00;97291.88;10398178;28;20185;-61
2022/10/28 02:08:31;;;;;;;11.65;2.80;;;;;;;13.61;100.00;97289.06;10398772;28;20715;-61
2022/10/28 02:14:17;;;;;;;10.13;3.20;;;;;;;13.68;100.00;97295.34;10415820;28;20274;-62
2022/10/28 02:19:35;;;;;;;9.70;2.58;;;;;;;13.77;100.00;97288.28;10341488;28;20308;-61
2022/10/28 02:24:39;;;;;;;6.40;2.33;;;;;;;13.92;100.00;97291.09;10397997;28;20195;-61
2022/10/28 02:29:53;;;;;;;8.27;2.67;;;;;;;13.97;100.00;97285.34;10415418;28;20213;-60
2022/10/28 02:34:55;;;;;;;10.30;2.95;;;;;;;14.03;100.00;97284.69;10397483;28;20678;-58
2022/10/28 02:40:01;;;;;;;6.82;3.05;;;;;;;14.11;100.00;97278.59;10397063;28;20212;-56
2022/10/28 02:45:07;;;;;;;5.20;2.60;;;;;;;14.03;100.00;97260.97;10396735;28;20193;-58
2022/10/28 02:50:11;;;;;;;4.55;2.55;;;;;;;14.14;100.00;97259.81;10347412;28;20717;-58
2022/10/28 02:55:11;;;;;;;11.70;3.83;;;;;;;14.13;99.88;97268.69;10325834;28;20685;-62
2022/10/28 03:00:15;;;;;;;8.88;2.65;;;;;;;14.14;99.72;97270.34;10326858;28;20217;-62
2022/10/28 03:05:16;;;;;;;8.05;3.05;;;;;;;14.15;98.65;97266.72;10331872;28;20536;-62
2022/10/28 03:10:16;;;;;;;18.50;6.90;;;;;;;14.19;98.43;97260.94;10332473;28;20222;-61
2022/10/28 03:15:17;;;;;;;15.13;5.90;;;;;;;14.23;98.82;97264.09;10331929;28;20226;-61
2022/10/28 03:20:17;;;;;;;10.25;3.65;;;;;;;14.36;97.47;97253.03;10332103;28;20217;-61
2022/10/28 03:25:17;;;;;;;5.57;2.58;;;;;;;14.41;96.43;97241.00;10331604;28;20198;-61
2022/10/28 03:30:18;;;;;;;9.38;3.90;;;;;;;14.38;96.46;97251.88;10331456;28;20361;-61
2022/10/28 03:35:18;;;;;;;11.85;3.55;;;;;;;14.31;96.81;97247.44;10331493;28;20221;-61
2022/10/28 03:40:18;;;;;;;7.82;3.25;;;;;;;14.55;94.70;97225.50;10330934;28;20272;-61
2022/10/28 03:45:19;;;;;;;8.98;3.47;;;;;;;14.52;94.56;97224.00;10325570;28;20201;-62
2022/10/28 03:50:19;;;;;;;5.78;2.92;;;;;;;14.48;94.81;97237.69;10384269;28;20240;-61
2022/10/28 03:55:19;;;;;;;5.60;2.60;;;;;;;14.14;97.03;97247.47;10412299;28;20587;-60
2022/10/28 04:00:20;;;;;;;7.15;2.63;;;;;;;13.98;98.71;97264.09;10411327;28;20216;-61
2022/10/28 04:05:21;;;;;;;8.13;2.75;;;;;;;13.83;100.00;97263.09;10412269;28;20184;-60
2022/10/28 04:10:22;;;;;;;7.90;2.65;;;;;;;13.95;100.00;97255.69;10411514;28;20254;-61
2022/10/28 04:15:22;;;;;;;6.45;2.40;;;;;;;13.76;100.00;97265.56;10411460;28;20648;-58
2022/10/28 04:20:23;;;;;;;7.03;2.50;;;;;;;13.83;100.00;97271.00;10411343;28;20660;-62
2022/10/28 04:25:25;;;;;;;7.82;2.63;;;;;;;13.77;100.00;97267.22;10411135;28;20197;-58
2022/10/28 04:30:25;;;;;;;5.57;2.60;;;;;;;13.87;100.00;97273.16;10411229;28;20777;-61
2022/10/28 04:35:26;;;;;;;5.97;2.53;;;;;;;13.99;100.00;97254.38;10410618;28;20212;-61
2022/10/28 04:40:26;;;;;;;10.07;2.60;;;;;;;13.86;100.00;97257.53;10411034;28;20215;-61
2022/10/28 04:45:26;;;;;;;7.30;2.90;;;;;;;13.61;100.00;97254.00;10410763;28;20591;-58
2022/10/28 04:50:27;;;;;;;8.55;2.85;;;;;;;13.61;100.00;97251.38;10410414;28;20611;-60
2022/10/28 04:55:27;;;;;;;9.30;3.00;;;;;;;13.55;100.00;97242.31;10410106;28;20217;-57
2022/10/28 05:00:28;;;;;;;9.30;2.85;;;;;;;13.37;100.00;97242.47;10412282;28;20708;-57
2022/10/28 05:05:29;;;;;;;7.82;2.75;;;;;;;13.40;100.00;97234.25;10397017;28;20605;-55
2022/10/28 05:10:30;;;;;;;11.32;3.40;;;;;;;13.36;100.00;97232.91;10394884;28;20213;-54
2022/10/28 05:15:30;;;;;;;7.97;2.92;;;;;;;13.40;100.00;97228.97;10407275;28;20215;-60
2022/10/28 05:20:30;;;;;;;8.38;3.25;;;;;;;13.57;100.00;97224.56;10378330;28;20225;-61
2022/10/28 05:25:31;;;;;;;8.75;3.28;;;;;;;13.69;100.00;97217.16;10377334;28;20193;-58
2022/10/28 05:30:31;;;;;;;8.63;3.03;;;;;;;13.95;100.00;97216.19;10384066;28;20216;-57
2022/10/28 05:35:32;;;;;;;7.68;3.13;;;;;;;14.09;100.00;97212.91;10417550;28;20714;-58
2022/10/28 05:40:32;;;;;;;10.95;3.25;;;;;;;14.13;100.00;97223.91;10391026;28;20213;-53
2022/10/28 05:45:32;;;;;;;7.18;3.15;;;;;;;14.12;100.00;97223.09;10376356;28;20192;-61
2022/10/28 05:50:33;;;;;;;9.95;3.58;;;;;;;14.14;100.00;97223.75;10388155;28;20706;-58
2022/10/28 05:55:34;;;;;;;14.43;4.13;;;;;;;14.22;100.00;97213.19;10416603;28;20618;-61
2022/10/28 06:00:34;;;;;;;10.73;3.63;;;;;;;14.35;99.56;97214.47;10416390;28;20216;-61
2022/10/28 06:05:41;;;;;;;17.90;3.80;;;;;;;14.37;98.72;97220.44;10416457;28;20193;-59
2022/10/28 06:10:49;;;;;;;14.63;3.05;;;;;;;14.41;98.83;97213.81;10415953;28;20266;-61
2022/10/28 06:15:50;;;;;;;7.25;3.67;;;;;;;14.51;97.94;97219.72;10416174;28;20255;-61
2022/10/28 06:20:55;;;;;;;16.48;4.20;;;;;;;14.65;96.56;97222.69;10415879;28;20213;-60
2022/10/28 06:26:00;;;;;;;11.38;4.28;;;;;;;14.78;95.81;97222.97;10415679;28;20663;-61
2022/10/28 06:31:05;;;;;;;10.77;3.80;;;;;;;14.78;96.00;97212.44;10415428;28;20219;-61
2022/10/28 06:36:06;;;;;;;8.00;3.10;;;;;;;14.92;95.07;97213.53;10415517;28;20221;-61
2022/10/28 06:41:06;;;;;;;8.35;3.60;;;;;;;15.05;94.24;97226.97;10415033;28;20616;-61
2022/10/28 06:46:07;;;;;;;10.55;3.90;;;;;;;15.02;94.25;97224.69;10415180;28;20197;-61
2022/10/28 06:51:07;;;;;;;9.00;3.47;;;;;;;15.39;91.63;97225.00;10381828;28;20243;-61
2022/10/28 06:56:08;;;;;;;6.53;2.97;;;;;;;15.62;90.11;97223.19;10412197;28;20224;-61
2022/10/28 07:01:09;;;;;;;9.55;2.65;;;;;;;15.79;89.31;97226.56;10409117;28;20262;-61
2022/10/28 07:06:09;;;;;;;11.63;3.00;;;;;;;15.92;88.20;97220.69;10410340;28;20193;-62
2022/10/28 07:11:09;;;;;;;12.68;3.08;;;;;;;16.42;86.74;97213.13;10411323;28;20211;-61
2022/10/28 07:16:10;;;;;;;11.32;3.05;;;;;;;16.88;83.49;97199.75;10410970;28;20228;-62
2022/10/28 07:21:11;;;;;;;5.97;2.72;;;;;;;17.02;82.05;97200.72;10412442;28;20853;-62
2022/10/28 07:26:11;;;;;;;7.45;2.58;;;;;;;17.40;79.84;97191.78;10411034;28;20590;-62
2022/10/28 07:31:11;;;;;;;6.03;3.15;;;;;;;17.51;78.86;97187.81;10412114;28;20204;-61
2022/10/28 07:36:12;;;;;;;9.50;2.80;;;;;;;17.39;79.34;97201.53;10410991;28;20267;-62
2022/10/28 07:41:12;;;;;;;10.52;2.53;;;;;;;18.10;76.35;97187.56;10411292;28;20209;-62
2022/10/28 07:46:13;;;;;;;10.23;3.15;;;;;;;18.47;77.28;97204.13;10401469;28;20304;-62
2022/10/28 07:51:14;;;;;;;11.15;3.10;;;;;;;18.82;75.56;97188.19;10386187;28;20243;-61
2022/10/28 07:56:14;;;;;;;8.85;2.42;;;;;;;19.36;73.17;97185.75;10369831;28;20217;-60
2022/10/28 08:01:17;;;;;;;11.27;3.17;;;;;;;19.39;73.04;97183.50;10389026;28;20216;-62
2022/10/28 08:06:19;;;;;;;9.07;2.60;;;;;;;19.74;73.19;97201.13;10408577;28;20272;-62
2022/10/28 08:11:23;;;;;;;8.45;2.53;;;;;;;20.49;70.10;97182.34;10410196;28;20266;-62
2022/10/28 08:16:23;;;;;;;5.07;2.65;;;;;;;20.74;67.24;97155.06;10410049;28;20213;-61
2022/10/28 08:21:25;;;;;;;8.10;2.65;;;;;;;21.28;66.96;97174.28;10408745;28;20216;-61
2022/10/28 08:26:26;;;;;;;6.07;2.40;;;;;;;21.69;62.54;97115.19;10409752;28;20191;-62
2022/10/28 08:31:26;;;;;;;9.63;2.70;;;;;;;22.02;60.13;97083.91;10408043;28;20215;-58
2022/10/28 08:36:27;;;;;;;8.23;2.50;;;;;;;22.00;60.26;97110.00;10402657;28;20220;-59
2022/10/28 08:41:30;;;;;;;9.80;2.33;;;;;;;22.29;59.09;97102.31;10403693;28;20742;-59
2022/10/28 08:46:36;;;;;;;14.48;2.67;;;;;;;22.37;57.16;97073.50;10409593;28;20631;-60
2022/10/28 08:51:48;;;;;;;7.43;1.95;;;;;;;22.82;55.95;97068.84;10407652;28;20248;-60
2022/10/28 08:56:49;;;;;;;12.18;2.28;;;;;;;23.04;55.32;97063.84;10408807;28;20192;-60
2022/10/28 09:01:58;;;;;;;10.60;2.45;;;;;;;22.44;56.12;97063.56;10390948;28;20212;-59
2022/10/28 09:07:00;;;;;;;13.15;2.55;;;;;;;22.66;57.39;97092.47;10390808;28;20203;-61
2022/10/28 09:12:03;;;;;;;13.48;2.55;;;;;;;22.61;55.55;97062.97;10406571;28;20704;-60
2022/10/28 09:17:20;;;;;;;9.73;2.30;;;;;;;22.56;56.03;97062.81;10408835;28;20197;-59
2022/10/28 09:22:38;;;;;;;9.35;2.30;;;;;;;23.96;52.80;97049.25;10391247;28;20189;-60
2022/10/28 09:27:51;;;;;;;11.05;2.67;;;;;;;23.30;53.21;97043.94;10407612;28;20213;-60
2022/10/28 09:33:02;;;;;;;14.70;2.72;;;;;;;23.91;52.49;97046.47;10390817;28;20208;-61
2022/10/28 09:38:18;;;;;;;8.35;2.50;;;;;;;23.96;52.14;97033.97;10390329;28;20219;-60
2022/10/28 09:43:30;;;;;;;8.48;2.58;;;;;;;23.45;53.63;97051.53;10408197;28;20195;-60
2022/10/28 09:48:39;;;;;;;12.45;2.78;;;;;;;22.78;53.49;97033.75;10395617;28;20322;-60
2022/10/28 09:54:06;;;;;;;10.63;2.90;;;;;;;23.20;53.62;97049.03;10415774;28;20306;-61
2022/10/28 09:59:13;;;;;;;11.43;2.38;;;;;;;23.52;52.64;97030.81;10394055;28;20225;-61
2022/10/28 10:04:19;;;;;;;8.73;2.58;;;;;;;23.78;52.78;97031.41;10415639;28;20181;-60
2022/10/28 10:09:27;;;;;;;8.45;2.38;;;;;;;24.61;51.91;97042.03;10415113;28;20204;-60
2022/10/28 10:14:30;;;;;;;10.82;2.42;;;;;;;24.56;50.75;97016.75;10397079;28;20355;-62
2022/10/28 10:19:59;;;;;;;11.05;2.50;;;;;;;23.36;53.11;97013.59;10397486;28;20216;-62
2022/10/28 10:24:59;;;;;;;14.65;2.85;;;;;;;23.29;53.83;97032.44;10414130;28;20203;-59
2022/10/28 10:30:00;;;;;;;15.27;2.58;;;;;;;23.14;53.49;97026.72;10413336;28;20227;-58
2022/10/28 10:35:15;;;;;;;11.30;2.72;;;;;;;23.42;53.54;97026.06;10414327;28;20278;-60
2022/10/28 10:40:20;;;;;;;14.60;2.55;;;;;;;23.07;55.28;97037.47;10396249;28;20216;-59
2022/10/28 10:45:24;;;;;;;9.68;2.55;;;;;;;23.34;55.52;97050.47;10396426;28;20569;-59
2022/10/28 10:50:30;;;;;;;13.45;2.45;;;;;;;22.89;56.46;97045.53;10413580;28;20240;-60
2022/10/28 10:55:34;;;;;;;12.48;2.75;;;;;;;23.45;55.51;97030.94;10395753;28;20252;-60
2022/10/28 11:00:36;;;;;;;9.68;2.30;;;;;;;23.48;54.62;97013.63;10410780;28;20216;-59
2022/10/28 11:05:36;;;;;;;10.57;2.65;;;;;;;23.17;53.80;96975.47;10411295;28;20219;-61
2022/10/28 11:10:37;;;;;;;6.85;2.72;;;;;;;23.17;55.01;96999.53;10412289;28;20219;-60
2022/10/28 11:15:37;;;;;;;9.05;2.08;;;;;;;23.11;55.90;96998.59;10394946;28;20633;-59
2022/10/28 11:21:00;;;;;;;15.52;2.40;;;;;;;23.31;53.95;96962.69;10412110;28;20216;-60
2022/10/28 11:26:04;;;;;;;9.82;2.60;;;;;;;23.19;53.59;96948.50;10394581;28;20200;-58
2022/10/28 11:31:35;;;;;;;13.05;3.20;;;;;;;23.53;54.40;96959.44;10410854;28;20213;-58
2022/10/28 11:36:41;;;;;;;9.20;2.60;;;;;;;23.81;53.51;96951.50;10394372;28;20227;-60
2022/10/28 11:42:14;;;;;;;10.50;2.33;;;;;;;23.95;52.78;96929.84;10393984;28;20296;-60
2022/10/28 11:47:59;;;;;;;11.50;2.05;;;;;;;24.33;51.89;96917.75;10390367;28;20311;-58
2022/10/28 11:53:22;;;;;;;6.68;2.30;;;;;;;24.01;51.54;96902.16;10538596;22;20237;-64
2022/10/28 11:58:55;;;;;;;11.43;2.50;;;;;;;23.87;52.36;96914.97;10517846;28;20199;-63
2022/10/28 12:04:16;;;;;;;16.60;2.53;;;;;;;23.38;54.12;96927.81;10474623;28;20222;-63
2022/10/28 12:09:30;;;;;;;12.25;2.53;;;;;;;23.62;52.54;96907.22;10475440;28;20226;-65
2022/10/28 12:15:01;;;;;;;8.90;2.50;;;;;;;23.45;52.74;96889.22;10493128;28;20223;-64
2022/10/28 12:20:24;;;;;;;7.22;2.47;;;;;;;23.40;53.36;96899.81;10492985;28;20771;-65
2022/10/28 12:25:27;;;;;;;12.23;2.22;;;;;;;22.92;53.82;96893.59;10490680;28;20180;-63
2022/10/28 12:30:33;;;;;;;10.95;2.17;;;;;;;22.95;54.03;96892.34;10475008;28;20211;-62
2022/10/28 12:35:36;;;;;;;9.32;2.75;;;;;;;23.07;54.31;96906.50;10491495;28;20342;-63
2022/10/28 12:40:47;;;;;;;11.25;2.60;;;;;;;22.78;56.26;96934.94;10491545;28;20203;-63
2022/10/28 12:45:47;;;;;;;10.30;2.65;;;;;;;22.86;57.12;96958.63;10481145;28;20207;-63
2022/10/28 12:51:00;;;;;;;12.98;3.22;;;;;;;23.19;54.75;96914.56;10476823;28;20247;-63
2022/10/28 12:56:01;;;;;;;7.72;2.45;;;;;;;23.21;55.82;96936.53;10492206;28;20222;-61
2022/10/28 13:01:07;;;;;;;8.57;2.67;;;;;;;23.13;55.11;96916.31;10492652;28;20207;-64
2022/10/28 13:06:26;;;;;;;10.93;2.83;;;;;;;23.23;56.01;96933.63;10492782;28;20202;-62
2022/10/28 13:11:37;;;;;;;13.05;2.80;;;;;;;22.92;56.87;96941.69;10491425;28;20292;-64
2022/10/28 13:17:03;;;;;;;8.27;2.85;;;;;;;23.13;56.55;96943.03;10492303;28;20303;-61
2022/10/28 13:22:16;;;;;;;7.50;2.42;;;;;;;23.45;55.60;96926.66;10495106;28;20249;-62
2022/10/28 13:27:17;;;;;;;11.23;3.08;;;;;;;23.77;54.79;96922.78;10498969;28;20207;-63
2022/10/28 13:32:35;;;;;;;10.52;2.30;;;;;;;23.96;53.15;96907.41;10482069;28;20227;-59
2022/10/28 13:37:38;;;;;;;12.25;3.63;;;;;;;23.36;53.90;96893.28;10481521;28;20327;-64
2022/10/28 13:42:41;;;;;;;7.60;2.60;;;;;;;22.81;55.15;96902.41;10480170;28;20704;-65
2022/10/28 13:47:41;;;;;;;8.80;2.42;;;;;;;22.31;56.80;96938.25;10499205;28;20198;-65
2022/10/28 13:52:43;;;;;;;8.18;2.60;;;;;;;22.33;56.83;96941.53;10498584;28;20277;-62
2022/10/28 13:57:46;;;;;;;8.60;2.95;;;;;;;22.49;56.61;96925.91;10480209;28;20236;-64
2022/10/28 14:02:48;;;;;;;10.13;3.42;;;;;;;22.12;57.10;96940.13;10498483;28;20199;-64
2022/10/28 14:07:56;;;;;;;9.18;2.55;;;;;;;21.88;57.84;96948.00;10480077;28;20202;-65
2022/10/28 14:13:13;;;;;;;12.13;2.92;;;;;;;21.85;57.84;96950.28;10478540;28;20234;-65
2022/10/28 14:18:14;;;;;;;11.18;3.00;;;;;;;21.59;58.22;96941.53;10497588;28;20321;-65
2022/10/28 14:23:42;;;;;;;12.15;2.60;;;;;;;21.26;58.71;96936.53;10497506;28;20693;-64
2022/10/28 14:28:43;;;;;;;12.43;2.90;;;;;;;20.74;59.78;96950.84;10497413;28;20568;-63
2022/10/28 14:33:43;;;;;;;11.68;2.83;;;;;;;20.41;60.89;96967.00;10496947;28;20227;-62
2022/10/28 14:39:02;;;;;;;12.27;3.77;;;;;;;20.00;62.22;96973.50;10496808;28;20191;-61
2022/10/28 14:44:14;;;;;;;11.85;3.38;;;;;;;19.68;62.83;96968.03;10495377;28;20436;-62
2022/10/28 14:49:24;;;;;;;8.35;2.85;;;;;;;19.69;62.18;96967.81;10496172;28;20227;-61
2022/10/28 14:54:43;;;;;;;10.60;2.90;;;;;;;19.57;62.47;96966.84;10478056;28;20246;-63
2022/10/28 14:59:44;;;;;;;11.82;3.08;;;;;;;19.60;62.25;96964.59;10478256;28;20596;-64
2022/10/28 15:04:46;;;;;;;11.75;3.47;;;;;;;19.52;62.63;96966.66;10495985;28;20179;-64
2022/10/28 15:09:52;;;;;;;13.75;3.40;;;;;;;19.42;62.46;96967.88;10495608;28;20218;-65
2022/10/28 15:14:54;;;;;;;7.63;2.80;;;;;;;19.41;62.81;96962.78;10496135;28;20280;-65
2022/10/28 15:19:57;;;;;;;14.10;3.67;;;;;;;19.28;63.98;96986.69;10494784;28;20219;-65
2022/10/28 15:25:20;;;;;;;13.98;3.63;;;;;;;19.11;64.74;96976.50;10495155;28;20184;-65
2022/10/28 15:30:24;;;;;;;12.95;3.38;;;;;;;19.15;64.99;96991.00;10495858;28;20748;-65
2022/10/28 15:35:28;;;;;;;8.85;3.70;;;;;;;19.12;65.23;96993.25;10494482;28;20766;-64
2022/10/28 15:40:31;;;;;;;6.65;3.08;;;;;;;19.02;66.22;96998.94;10494562;28;20211;-66
2022/10/28 15:45:34;;;;;;;8.55;3.45;;;;;;;19.00;66.51;97001.78;10492861;28;20195;-65
2022/10/28 15:50:35;;;;;;;11.88;3.72;;;;;;;18.97;67.14;97014.69;10473492;28;20246;-66
2022/10/28 15:55:36;;;;;;;13.25;3.10;;;;;;;18.81;68.21;97021.16;10493782;28;20594;-62
2022/10/28 16:00:56;;;;;;;8.10;3.10;;;;;;;18.79;68.53;97023.19;10493047;28;20243;-64
2022/10/28 16:05:57;;;;;;;7.75;4.05;;;;;;;18.75;68.90;97022.78;10493201;28;20195;-64
2022/10/28 16:11:03;;;;;;;14.25;4.28;;;;;;;18.67;69.59;97038.91;10493216;28;20219;-62
2022/10/28 16:16:09;;;;;;;42.75;22.60;;;;;;;18.68;69.55;97021.94;10474942;28;20254;-64
2022/10/28 16:21:16;;;;;;;13.77;9.48;;;;;;;18.68;69.74;97030.72;10491127;28;20667;-64
2022/10/28 16:26:17;;;;;;;15.68;9.15;;;;;;;18.72;69.50;97028.47;10490771;28;20198;-65
2022/10/28 16:31:20;;;;;;;14.15;7.50;;;;;;;18.71;69.65;97035.63;10487758;28;20297;-64
2022/10/28 16:36:21;;;;;;;118.57;46.78;;;;;;;18.68;70.03;97035.19;10496922;28;20223;-63
2022/10/28 16:41:22;;;;;;;16.20;7.75;;;;;;;18.66;70.09;97034.59;10492659;28;20207;-63
2022/10/28 16:46:22;;;;;;;16.65;5.38;;;;;;;18.63;70.06;97041.09;10492543;28;20183;-63
2022/10/28 16:51:23;;;;;;;12.52;3.95;;;;;;;18.56;70.76;97042.09;10492852;28;20288;-62
2022/10/28 16:56:23;;;;;;;7.47;3.28;;;;;;;18.44;71.17;97040.03;10497413;28;20693;-63
2022/10/28 17:01:23;;;;;;;9.25;3.28;;;;;;;18.45;70.95;97054.09;10501649;28;20218;-64
2022/10/28 17:06:24;;;;;;;10.73;3.78;;;;;;;18.48;70.47;97046.59;10501488;28;20267;-65
2022/10/28 17:11:24;;;;;;;9.77;3.47;;;;;;;18.39;70.54;97031.84;10501364;28;20214;-65
2022/10/28 17:16:25;;;;;;;11.80;4.00;;;;;;;18.39;70.45;97037.13;10500990;28;20287;-65
2022/10/28 17:21:25;;;;;;;7.55;3.75;;;;;;;18.31;70.54;97029.38;10501903;28;20279;-64
2022/10/28 17:26:25;;;;;;;13.48;3.92;;;;;;;18.27;70.49;97031.59;10500562;28;20199;-62
2022/10/28 17:31:26;;;;;;;10.43;3.42;;;;;;;18.23;70.43;97021.59;10500863;28;20207;-64
2022/10/28 17:36:26;;;;;;;11.00;3.65;;;;;;;18.26;69.94;97018.53;10499986;28;20565;-61
2022/10/28 17:41:26;;;;;;;10.75;3.70;;;;;;;18.20;69.88;97019.34;10500171;28;20705;-64
2022/10/28 17:46:27;;;;;;;10.38;4.07;;;;;;;18.17;70.09;97017.88;10499713;28;20669;-64
2022/10/28 17:51:29;;;;;;;15.60;4.00;;;;;;;17.94;70.86;97029.59;10503113;22;20296;-74
2022/10/28 17:56:30;;;;;;;7.60;3.60;;;;;;;17.93;70.71;97027.13;10495543;28;20227;-74
2022/10/28 18:01:31;;;;;;;11.55;3.92;;;;;;;17.93;70.25;97011.22;10495732;28;20532;-75
2022/10/28 18:06:32;;;;;;;10.57;3.88;;;;;;;17.81;70.37;97014.41;10494188;28;20244;-75
2022/10/28 18:11:35;;;;;;;10.80;4.13;;;;;;;17.83;69.71;96998.31;10476911;28;20202;-74
2022/10/28 18:16:36;;;;;;;12.80;6.28;;;;;;;17.83;69.17;96993.00;10475151;28;20219;-74
2022/10/28 18:21:36;;;;;;;11.68;5.25;;;;;;;17.87;68.53;96975.72;10476756;28;20550;-74
2022/10/28 18:26:37;;;;;;;10.93;3.80;;;;;;;17.85;68.27;96976.91;10493947;28;20644;-74
2022/10/28 18:31:43;;;;;;;13.85;4.07;;;;;;;17.89;67.54;96964.94;10494286;28;20237;-74
2022/10/28 18:36:43;;;;;;;8.98;3.50;;;;;;;17.82;67.63;96973.66;10493770;28;20224;-74
2022/10/28 18:41:43;;;;;;;10.82;4.25;;;;;;;17.65;68.13;96977.63;10493619;28;20659;-74
2022/10/28 18:46:44;;;;;;;18.67;4.43;;;;;;;17.46;68.56;96972.00;10493529;28;20191;-74
2022/10/28 18:51:45;;;;;;;10.95;4.50;;;;;;;17.53;68.20;96971.22;10486660;28;20230;-74
2022/10/28 18:56:45;;;;;;;11.20;4.07;;;;;;;17.53;67.63;96950.84;10470679;28;20223;-74
2022/10/28 19:01:47;;;;;;;9.38;3.85;;;;;;;17.25;68.69;96966.75;10466131;28;20250;-74
2022/10/28 19:06:47;;;;;;;11.20;4.22;;;;;;;17.38;67.68;96952.78;10456176;28;20190;-74
2022/10/28 19:11:47;;;;;;;10.52;3.72;;;;;;;17.44;67.09;96936.97;10481207;28;20222;-74
2022/10/28 19:16:48;;;;;;;13.93;3.85;;;;;;;17.54;66.26;96922.53;10492948;28;20223;-74
2022/10/28 19:21:50;;;;;;;10.50;3.42;;;;;;;17.57;65.78;96916.84;10491654;28;20551;-74
2022/10/28 19:26:50;;;;;;;12.95;4.25;;;;;;;17.71;64.72;96907.13;10491794;28;20193;-73
2022/10/28 19:31:50;;;;;;;10.25;3.50;;;;;;;17.85;63.99;96892.09;10492372;28;20202;-74
2022/10/28 19:36:51;;;;;;;7.00;3.55;;;;;;;17.94;63.16;96885.66;10492567;28;20215;-74
2022/10/28 19:41:51;;;;;;;10.75;3.88;;;;;;;18.08;62.21;96879.34;10501321;28;20631;-74
2022/10/28 19:46:51;;;;;;;11.75;3.65;;;;;;;18.06;62.33;96889.34;10491003;28;20187;-74
2022/10/28 19:51:52;;;;;;;12.07;3.92;;;;;;;18.08;61.90;96886.50;10490791;28;20241;-74
2022/10/28 19:56:52;;;;;;;10.98;3.72;;;;;;;18.07;61.77;96904.25;10485238;28;20239;-74
2022/10/28 20:01:53;;;;;;;9.20;3.17;;;;;;;18.15;61.55;96909.38;10488719;28;20179;-74
2022/10/28 20:06:53;;;;;;;16.58;4.25;;;;;;;18.08;61.68;96900.56;10489339;28;20198;-74
2022/10/28 20:11:53;;;;;;;15.95;4.43;;;;;;;18.24;61.00;96902.06;10490086;28;20183;-74
2022/10/28 20:16:54;;;;;;;10.75;3.55;;;;;;;18.04;61.65;96919.72;10490267;28;20225;-74
2022/10/28 20:21:54;;;;;;;17.77;4.50;;;;;;;17.97;61.77;96928.47;10486697;28;20655;-74
2022/10/28 20:26:55;;;;;;;15.63;4.20;;;;;;;17.85;62.50;96937.16;10489210;28;20218;-74
2022/10/28 20:31:55;;;;;;;15.60;4.00;;;;;;;17.78;62.38;96927.34;10489744;28;20191;-74
2022/10/28 20:36:55;;;;;;;13.55;3.78;;;;;;;17.86;62.38;96925.56;10488705;28;20219;-74
2022/10/28 20:41:56;;;;;;;11.85;3.85;;;;;;;17.70;63.12;96938.09;10489658;28;20183;-74
2022/10/28 20:46:56;;;;;;;15.73;3.85;;;;;;;17.78;62.14;96924.69;10489283;28;20192;-73
2022/10/28 20:51:56;;;;;;;14.38;3.60;;;;;;;17.70;62.65;96938.09;10489012;28;20241;-74
2022/10/28 20:56:57;;;;;;;12.90;4.40;;;;;;;17.56;63.25;96947.00;10489137;28;20214;-74
2022/10/28 21:01:57;;;;;;;12.93;3.58;;;;;;;17.69;62.50;96946.25;10490855;28;20187;-74
2022/10/28 21:06:57;;;;;;;11.80;3.55;;;;;;;17.64;62.72;96944.19;10489262;28;20666;-74
2022/10/28 21:11:58;;;;;;;18.52;3.92;;;;;;;17.89;61.41;96946.41;10490325;28;20198;-74
2022/10/28 21:17:00;;;;;;;17.33;4.50;;;;;;;18.07;60.19;96933.41;10490177;28;20295;-74
2022/10/28 21:22:00;;;;;;;9.60;3.78;;;;;;;18.02;59.89;96930.53;10471959;28;20240;-74
2022/10/28 21:27:01;;;;;;;12.80;3.55;;;;;;;17.91;60.39;96941.72;10472187;28;20647;-74
2022/10/28 21:32:01;;;;;;;9.95;3.45;;;;;;;17.81;60.84;96950.00;10490048;28;20555;-74
2022/10/28 21:37:01;;;;;;;11.43;3.50;;;;;;;17.80;60.49;96943.06;10489700;28;20214;-74
2022/10/28 21:42:02;;;;;;;13.27;3.67;;;;;;;17.48;61.78;96962.03;10491532;28;20241;-74
2022/10/28 21:47:02;;;;;;;15.45;3.50;;;;;;;17.34;62.17;96965.59;10497246;28;20198;-74
2022/10/28 21:52:03;;;;;;;14.60;3.50;;;;;;;17.33;62.86;96982.50;10496953;28;20234;-74
2022/10/28 21:57:05;;;;;;;11.32;3.30;;;;;;;17.48;61.58;96979.75;10496879;28;20697;-74
2022/10/28 22:02:06;;;;;;;19.38;4.22;;;;;;;17.06;63.96;97000.00;10497258;28;20310;-74
2022/10/28 22:07:06;;;;;;;9.15;3.22;;;;;;;17.04;63.87;97000.19;10496081;28;20526;-74
2022/10/28 22:12:07;;;;;;;11.07;3.75;;;;;;;17.19;63.27;96986.06;10497072;28;20241;-74
2022/10/28 22:17:07;;;;;;;8.82;3.10;;;;;;;17.47;61.95;96971.00;10495988;28;20282;-74
2022/10/28 22:22:07;;;;;;;12.88;3.53;;;;;;;17.20;63.46;97003.59;10496433;28;20195;-74
2022/10/28 22:27:08;;;;;;;10.38;3.28;;;;;;;17.18;63.54;97005.59;10496315;28;20207;-74
2022/10/28 22:32:09;;;;;;;11.38;2.90;;;;;;;17.35;63.08;96993.72;10495561;28;20266;-74
2022/10/28 22:37:10;;;;;;;13.43;2.70;;;;;;;17.70;61.55;96972.53;10477418;28;20223;-74
2022/10/28 22:42:10;;;;;;;14.15;2.97;;;;;;;17.77;61.11;96965.44;10477604;28;20981;-74
2022/10/28 22:47:10;;;;;;;19.88;3.13;;;;;;;17.74;61.01;96968.50;10494909;28;20219;-74
2022/10/28 22:52:11;;;;;;;10.55;2.80;;;;;;;17.87;60.54;96964.28;10494533;28;20289;-74
2022/10/28 22:57:11;;;;;;;7.07;2.67;;;;;;;17.98;60.17;96955.81;10494811;28;20187;-74
2022/10/28 23:02:11;;;;;;;6.22;2.78;;;;;;;17.80;60.95;96974.84;10494546;28;20253;-74
2022/10/28 23:07:12;;;;;;;11.43;2.58;;;;;;;17.96;60.41;96981.69;10494080;28;20270;-74
2022/10/28 23:12:12;;;;;;;10.55;2.83;;;;;;;17.83;61.34;96988.53;10494494;28;20195;-74
2022/10/28 23:17:13;;;;;;;12.77;2.63;;;;;;;17.83;61.22;96993.81;10493433;28;20187;-74
2022/10/28 23:22:13;;;;;;;12.45;2.88;;;;;;;17.89;61.25;96999.41;10494062;28;20244;-73